sensor_id;sensor_type;location;lat;lon;timestamp;pressure;altitude;pressure_sealevel;temperature;humidity
21863;BME280;11096;51.338;12.524;2023-06-22T00:01:01;100412.16;;;19.33;100.00
21863;BME280;11096;51.338;12.524;2023-06-22T00:03:26;100410.19;;;19.35;100.00
21863;BME280;11096;51.338;12.524;2023-06-22T00:05:52;100412.66;;;19.37;100.00
21863;BME280;11096;51.338;12.524;2023-06-22T00:08:19;100420.38;;;19.30;100.00
21863;BME280;11096;51.338;12.524;2023-06-22T00:10:45;100431.59;;;19.32;100.00
21863;BME280;11096;51.338;12.524;2023-06-22T00:13:12;100424.13;;;19.27;100.00
21863;BME280;11096;51.338;12.524;2023-06-22T00:15:39;100424.97;;;19.28;100.00
21863;BME280;11096;51.338;12.524;2023-06-22T00:18:09;100414.78;;;19.33;100.00
21863;BME280;11096;51.338;12.524;2023-06-22T00:20:35;100411.81;;;19.36;100.00
21863;BME280;11096;51.338;12.524;2023-06-22T00:23:05;100414.63;;;19.35;100.00
21863;BME280;11096;51.338;12.524;2023-06-22T00:25:38;100414.06;;;19.23;100.00
21863;BME280;11096;51.338;12.524;2023-06-22T00:28:05;100419.25;;;19.15;100.00
21863;BME280;11096;51.338;12.524;2023-06-22T00:30:31;100416.59;;;19.06;100.00
21863;BME280;11096;51.338;12.524;2023-06-22T00:32:57;100414.09;;;19.05;100.00
21863;BME280;11096;51.338;12.524;2023-06-22T00:35:24;100418.75;;;19.11;100.00
21863;BME280;11096;51.338;12.524;2023-06-22T00:37:58;100415.97;;;19.13;100.00
21863;BME280;11096;51.338;12.524;2023-06-22T00:40:30;100421.25;;;19.13;100.00
21863;BME280;11096;51.338;12.524;2023-06-22T00:42:56;100414.63;;;19.08;100.00
21863;BME280;11096;51.338;12.524;2023-06-22T00:45:25;100407.72;;;19.07;100.00
21863;BME280;11096;51.338;12.524;2023-06-22T00:47:56;100408.53;;;19.08;100.00
21863;BME280;11096;51.338;12.524;2023-06-22T00:50:24;100406.53;;;18.84;100.00
21863;BME280;11096;51.338;12.524;2023-06-22T00:52:55;100418.44;;;18.88;100.00
21863;BME280;11096;51.338;12.524;2023-06-22T00:55:24;100413.75;;;18.82;100.00
21863;BME280;11096;51.338;12.524;2023-06-22T00:57:52;100409.22;;;18.74;100.00
21863;BME280;11096;51.338;12.524;2023-06-22T01:00:22;100410.00;;;18.66;100.00
21863;BME280;11096;51.338;12.524;2023-06-22T01:02:53;100407.72;;;18.72;100.00
21863;BME280;11096;51.338;12.524;2023-06-22T01:05:19;100410.50;;;18.70;100.00
21863;BME280;11096;51.338;12.524;2023-06-22T01:08:20;100402.09;;;18.66;100.00
21863;BME280;11096;51.338;12.524;2023-06-22T01:16:19;100400.75;;;18.62;100.00
21863;BME280;11096;51.338;12.524;2023-06-22T01:18:47;100405.03;;;18.63;100.00
21863;BME280;11096;51.338;12.524;2023-06-22T01:21:16;100392.84;;;18.62;100.00
21863;BME280;11096;51.338;12.524;2023-06-22T01:24:10;100399.97;;;18.70;100.00
21863;BME280;11096;51.338;12.524;2023-06-22T01:27:09;100397.78;;;18.65;100.00
21863;BME280;11096;51.338;12.524;2023-06-22T01:29:36;100410.31;;;18.63;100.00
21863;BME280;11096;51.338;12.524;2023-06-22T01:32:04;100410.31;;;18.63;100.00
21863;BME280;11096;51.338;12.524;2023-06-22T01:34:31;100410.31;;;18.63;100.00
21863;BME280;11096;51.338;12.524;2023-06-22T01:36:58;100410.38;;;18.54;100.00
21863;BME280;11096;51.338;12.524;2023-06-22T01:39:24;100403.84;;;18.40;100.00
21863;BME280;11096;51.338;12.524;2023-06-22T01:41:50;100406.09;;;18.35;100.00
21863;BME280;11096;51.338;12.524;2023-06-22T01:44:16;100417.72;;;18.32;100.00
21863;BME280;11096;51.338;12.524;2023-06-22T01:46:42;100410.28;;;18.28;100.00
21863;BME280;11096;51.338;12.524;2023-06-22T01:49:09;100411.56;;;18.23;100.00
21863;BME280;11096;51.338;12.524;2023-06-22T01:51:34;100418.47;;;18.24;100.00
21863;BME280;11096;51.338;12.524;2023-06-22T01:54:01;100415.56;;;18.28;100.00
21863;BME280;11096;51.338;12.524;2023-06-22T01:56:27;100421.94;;;18.25;100.00
21863;BME280;11096;51.338;12.524;2023-06-22T01:59:26;100415.56;;;18.28;100.00
21863;BME280;11096;51.338;12.524;2023-06-22T02:02:04;100413.41;;;18.13;100.00
21863;BME280;11096;51.338;12.524;2023-06-22T02:04:38;100417.28;;;18.19;100.00
21863;BME280;11096;51.338;12.524;2023-06-22T02:07:11;100418.09;;;18.19;100.00
21863;BME280;11096;51.338;12.524;2023-06-22T02:09:38;100417.81;;;18.22;100.00
21863;BME280;11096;51.338;12.524;2023-06-22T02:12:08;100411.84;;;18.20;100.00
21863;BME280;11096;51.338;12.524;2023-06-22T02:14:36;100409.22;;;18.20;100.00
21863;BME280;11096;51.338;12.524;2023-06-22T02:17:02;100420.06;;;18.17;100.00
21863;BME280;11096;51.338;12.524;2023-06-22T02:19:30;100423.44;;;18.10;100.00
21863;BME280;11096;51.338;12.524;2023-06-22T02:21:58;100425.88;;;18.11;100.00
21863;BME280;11096;51.338;12.524;2023-06-22T02:24:23;100422.47;;;18.29;100.00
21863;BME280;11096;51.338;12.524;2023-06-22T02:26:49;100413.59;;;18.30;100.00
21863;BME280;11096;51.338;12.524;2023-06-22T02:29:14;100410.59;;;18.24;100.00
21863;BME280;11096;51.338;12.524;2023-06-22T02:31:40;100393.81;;;18.26;100.00
21863;BME280;11096;51.338;12.524;2023-06-22T02:34:05;100389.25;;;18.28;100.00
21863;BME280;11096;51.338;12.524;2023-06-22T02:36:31;100388.13;;;18.30;100.00
21863;BME280;11096;51.338;12.524;2023-06-22T02:38:58;100396.31;;;18.27;100.00
21863;BME280;11096;51.338;12.524;2023-06-22T02:41:26;100399.31;;;18.14;100.00
21863;BME280;11096;51.338;12.524;2023-06-22T02:43:52;100405.16;;;18.08;100.00
21863;BME280;11096;51.338;12.524;2023-06-22T02:46:17;100395.84;;;18.14;100.00
21863;BME280;11096;51.338;12.524;2023-06-22T02:48:43;100396.97;;;18.11;100.00
21863;BME280;11096;51.338;12.524;2023-06-22T02:51:08;100393.69;;;18.09;100.00
21863;BME280;11096;51.338;12.524;2023-06-22T02:53:34;100397.25;;;18.08;100.00
21863;BME280;11096;51.338;12.524;2023-06-22T02:56:02;100394.94;;;18.05;100.00
21863;BME280;11096;51.338;12.524;2023-06-22T02:58:30;100391.31;;;18.06;100.00
21863;BME280;11096;51.338;12.524;2023-06-22T03:00:56;100381.84;;;18.13;100.00
21863;BME280;11096;51.338;12.524;2023-06-22T03:03:21;100384.41;;;18.05;100.00
21863;BME280;11096;51.338;12.524;2023-06-22T03:05:47;100397.25;;;18.08;100.00
21863;BME280;11096;51.338;12.524;2023-06-22T03:08:12;100402.38;;;18.10;100.00
21863;BME280;11096;51.338;12.524;2023-06-22T03:10:37;100395.31;;;18.10;100.00
21863;BME280;11096;51.338;12.524;2023-06-22T03:13:03;100394.63;;;18.08;100.00
21863;BME280;11096;51.338;12.524;2023-06-22T03:15:29;100397.25;;;18.08;100.00
21863;BME280;11096;51.338;12.524;2023-06-22T03:17:56;100391.03;;;18.09;100.00
21863;BME280;11096;51.338;12.524;2023-06-22T03:20:22;100398.94;;;18.09;100.00
21863;BME280;11096;51.338;12.524;2023-06-22T03:22:48;100396.81;;;18.13;100.00
21863;BME280;11096;51.338;12.524;2023-06-22T03:25:14;100398.03;;;18.18;100.00
21863;BME280;11096;51.338;12.524;2023-06-22T03:27:40;100393.69;;;18.27;100.00
21863;BME280;11096;51.338;12.524;2023-06-22T03:30:08;100402.78;;;18.33;100.00
21863;BME280;11096;51.338;12.524;2023-06-22T03:32:33;100413.00;;;18.36;100.00
21863;BME280;11096;51.338;12.524;2023-06-22T03:34:59;100407.59;;;18.37;100.00
21863;BME280;11096;51.338;12.524;2023-06-22T03:37:25;100408.72;;;18.35;100.00
21863;BME280;11096;51.338;12.524;2023-06-22T03:39:51;100403.59;;;18.33;100.00
21863;BME280;11096;51.338;12.524;2023-06-22T03:42:17;100413.91;;;18.27;100.00
21863;BME280;11096;51.338;12.524;2023-06-22T03:44:42;100410.44;;;18.26;100.00
21863;BME280;11096;51.338;12.524;2023-06-22T03:47:07;100420.81;;;18.28;100.00
21863;BME280;11096;51.338;12.524;2023-06-22T03:49:34;100426.63;;;18.31;100.00
21863;BME280;11096;51.338;12.524;2023-06-22T03:52:00;100437.66;;;18.35;100.00
21863;BME280;11096;51.338;12.524;2023-06-22T03:54:27;100451.19;;;18.40;100.00
21863;BME280;11096;51.338;12.524;2023-06-22T03:56:53;100448.13;;;18.44;100.00
21863;BME280;11096;51.338;12.524;2023-06-22T03:59:19;100447.00;;;18.47;100.00
21863;BME280;11096;51.338;12.524;2023-06-22T04:01:44;100449.00;;;18.53;100.00
21863;BME280;11096;51.338;12.524;2023-06-22T04:04:10;100450.38;;;18.57;100.00
21863;BME280;11096;51.338;12.524;2023-06-22T04:06:35;100461.50;;;18.69;100.00
21863;BME280;11096;51.338;12.524;2023-06-22T04:09:00;100475.47;;;18.79;100.00
21863;BME280;11096;51.338;12.524;2023-06-22T04:11:26;100483.97;;;18.91;100.00
21863;BME280;11096;51.338;12.524;2023-06-22T04:13:51;100488.69;;;19.05;100.00
21863;BME280;11096;51.338;12.524;2023-06-22T04:16:17;100492.75;;;19.18;100.00
21863;BME280;11096;51.338;12.524;2023-06-22T04:18:42;100499.50;;;19.02;100.00
21863;BME280;11096;51.338;12.524;2023-06-22T04:21:08;100506.38;;;18.95;100.00
21863;BME280;11096;51.338;12.524;2023-06-22T04:23:33;100501.00;;;19.05;100.00
21863;BME280;11096;51.338;12.524;2023-06-22T04:25:59;100498.19;;;18.98;100.00
21863;BME280;11096;51.338;12.524;2023-06-22T04:28:24;100514.09;;;19.15;100.00
21863;BME280;11096;51.338;12.524;2023-06-22T04:30:50;100519.41;;;19.41;100.00
21863;BME280;11096;51.338;12.524;2023-06-22T04:33:16;100520.09;;;19.69;100.00
21863;BME280;11096;51.338;12.524;2023-06-22T04:35:45;100507.97;;;19.76;100.00
21863;BME280;11096;51.338;12.524;2023-06-22T04:38:12;100507.56;;;19.89;100.00
21863;BME280;11096;51.338;12.524;2023-06-22T04:40:41;100511.34;;;19.86;100.00
21863;BME280;11096;51.338;12.524;2023-06-22T04:43:06;100499.81;;;19.95;100.00
21863;BME280;11096;51.338;12.524;2023-06-22T04:45:33;100497.38;;;20.02;100.00
21863;BME280;11096;51.338;12.524;2023-06-22T04:47:59;100498.19;;;20.03;100.00
21863;BME280;11096;51.338;12.524;2023-06-22T04:50:24;100495.88;;;20.00;100.00
21863;BME280;11096;51.338;12.524;2023-06-22T04:52:51;100490.63;;;20.08;100.00
21863;BME280;11096;51.338;12.524;2023-06-22T04:55:17;100496.03;;;19.98;100.00
21863;BME280;11096;51.338;12.524;2023-06-22T04:57:47;100491.31;;;20.10;100.00
21863;BME280;11096;51.338;12.524;2023-06-22T05:00:23;100486.59;;;20.30;100.00
21863;BME280;11096;51.338;12.524;2023-06-22T05:02:48;100480.53;;;20.46;100.00
21863;BME280;11096;51.338;12.524;2023-06-22T05:05:14;100478.91;;;20.53;100.00
21863;BME280;11096;51.338;12.524;2023-06-22T05:07:44;100479.06;;;20.51;100.00
21863;BME280;11096;51.338;12.524;2023-06-22T05:10:11;100473.13;;;20.49;100.00
21863;BME280;11096;51.338;12.524;2023-06-22T05:12:37;100475.59;;;20.51;100.00
21863;BME280;11096;51.338;12.524;2023-06-22T05:15:03;100480.22;;;20.49;100.00
21863;BME280;11096;51.338;12.524;2023-06-22T05:17:29;100481.22;;;20.48;100.00
21863;BME280;11096;51.338;12.524;2023-06-22T05:19:55;100477.25;;;20.52;100.00
21863;BME280;11096;51.338;12.524;2023-06-22T05:22:21;100463.78;;;20.63;100.00
21863;BME280;11096;51.338;12.524;2023-06-22T05:24:46;100444.94;;;20.66;100.00
21863;BME280;11096;51.338;12.524;2023-06-22T05:27:12;100433.41;;;20.84;100.00
21863;BME280;11096;51.338;12.524;2023-06-22T05:29:38;100434.06;;;21.10;100.00
21863;BME280;11096;51.338;12.524;2023-06-22T05:32:04;100426.75;;;21.37;100.00
21863;BME280;11096;51.338;12.524;2023-06-22T05:34:29;100412.53;;;21.85;100.00
21863;BME280;11096;51.338;12.524;2023-06-22T05:36:55;100392.41;;;22.07;100.00
21863;BME280;11096;51.338;12.524;2023-06-22T05:39:21;100380.28;;;22.21;100.00
21863;BME280;11096;51.338;12.524;2023-06-22T05:41:46;100367.16;;;22.28;100.00
21863;BME280;11096;51.338;12.524;2023-06-22T05:44:12;100360.97;;;22.13;100.00
21863;BME280;11096;51.338;12.524;2023-06-22T05:46:40;100349.75;;;22.02;100.00
21863;BME280;11096;51.338;12.524;2023-06-22T05:49:09;100349.16;;;22.23;100.00
21863;BME280;11096;51.338;12.524;2023-06-22T05:51:35;100359.44;;;22.41;100.00
21863;BME280;11096;51.338;12.524;2023-06-22T05:54:01;100364.47;;;22.74;100.00
21863;BME280;11096;51.338;12.524;2023-06-22T05:56:26;100363.06;;;23.01;100.00
21863;BME280;11096;51.338;12.524;2023-06-22T05:58:51;100358.50;;;23.25;98.74
21863;BME280;11096;51.338;12.524;2023-06-22T06:01:17;100346.28;;;23.09;92.66
21863;BME280;11096;51.338;12.524;2023-06-22T06:03:42;100341.25;;;23.29;92.65
21863;BME280;11096;51.338;12.524;2023-06-22T06:06:09;100348.16;;;23.60;88.80
21863;BME280;11096;51.338;12.524;2023-06-22T06:08:37;100336.13;;;24.15;87.22
21863;BME280;11096;51.338;12.524;2023-06-22T06:11:02;100334.06;;;24.38;84.12
21863;BME280;11096;51.338;12.524;2023-06-22T06:13:28;100332.47;;;24.59;80.99
21863;BME280;11096;51.338;12.524;2023-06-22T06:15:53;100337.72;;;24.52;79.08
21863;BME280;11096;51.338;12.524;2023-06-22T06:18:22;100339.97;;;24.55;76.59
21863;BME280;11096;51.338;12.524;2023-06-22T06:20:47;100347.91;;;24.77;76.01
21863;BME280;11096;51.338;12.524;2023-06-22T06:23:13;100355.28;;;25.10;75.70
21863;BME280;11096;51.338;12.524;2023-06-22T06:25:38;100354.19;;;25.25;73.01
21863;BME280;11096;51.338;12.524;2023-06-22T06:28:04;100362.75;;;25.62;72.75
21863;BME280;11096;51.338;12.524;2023-06-22T06:30:30;100363.91;;;26.08;70.62
21863;BME280;11096;51.338;12.524;2023-06-22T06:32:56;100369.66;;;25.57;69.23
21863;BME280;11096;51.338;12.524;2023-06-22T06:35:21;100369.56;;;25.37;67.89
21863;BME280;11096;51.338;12.524;2023-06-22T06:37:49;100376.78;;;25.43;67.99
21863;BME280;11096;51.338;12.524;2023-06-22T06:40:17;100390.97;;;26.11;65.15
21863;BME280;11096;51.338;12.524;2023-06-22T06:42:45;100386.06;;;26.15;65.33
21863;BME280;11096;51.338;12.524;2023-06-22T06:45:12;100397.50;;;26.02;65.05
21863;BME280;11096;51.338;12.524;2023-06-22T06:47:39;100394.63;;;26.04;65.43
21863;BME280;11096;51.338;12.524;2023-06-22T06:50:05;100388.72;;;25.67;64.80
21863;BME280;11096;51.338;12.524;2023-06-22T06:53:08;100394.63;;;25.97;64.70
21863;BME280;11096;51.338;12.524;2023-06-22T06:55:33;100392.00;;;26.30;63.82
21863;BME280;11096;51.338;12.524;2023-06-22T06:57:59;100392.88;;;26.51;63.12
21863;BME280;11096;51.338;12.524;2023-06-22T07:00:25;100392.25;;;26.82;61.98
21863;BME280;11096;51.338;12.524;2023-06-22T07:02:51;100398.19;;;27.17;62.69
21863;BME280;11096;51.338;12.524;2023-06-22T07:05:16;100395.31;;;27.06;61.49
21863;BME280;11096;51.338;12.524;2023-06-22T07:07:42;100384.81;;;27.37;61.77
21863;BME280;11096;51.338;12.524;2023-06-22T07:10:08;100387.09;;;28.56;60.17
21863;BME280;11096;51.338;12.524;2023-06-22T07:12:34;100386.94;;;31.29;51.31
21863;BME280;11096;51.338;12.524;2023-06-22T07:15:09;100384.06;;;30.72;51.43
21863;BME280;11096;51.338;12.524;2023-06-22T07:17:36;100385.63;;;29.95;53.95
21863;BME280;11096;51.338;12.524;2023-06-22T07:20:02;100383.84;;;28.97;54.20
21863;BME280;11096;51.338;12.524;2023-06-22T07:22:33;100388.94;;;28.23;55.55
21863;BME280;11096;51.338;12.524;2023-06-22T07:24:58;100378.13;;;27.67;57.08
21863;BME280;11096;51.338;12.524;2023-06-22T07:27:23;100391.44;;;27.08;58.65
21863;BME280;11096;51.338;12.524;2023-06-22T07:29:49;100375.88;;;26.85;59.52
21863;BME280;11096;51.338;12.524;2023-06-22T07:32:15;100386.91;;;27.15;59.08
21863;BME280;11096;51.338;12.524;2023-06-22T07:34:41;100377.84;;;27.10;59.48
21863;BME280;11096;51.338;12.524;2023-06-22T07:37:06;100373.28;;;27.95;56.71
21863;BME280;11096;51.338;12.524;2023-06-22T07:39:32;100370.75;;;27.62;58.63
21863;BME280;11096;51.338;12.524;2023-06-22T07:41:57;100373.91;;;27.97;57.81
21863;BME280;11096;51.338;12.524;2023-06-22T07:44:23;100368.09;;;28.07;57.89
21863;BME280;11096;51.338;12.524;2023-06-22T07:46:49;100367.03;;;28.40;56.65
21863;BME280;11096;51.338;12.524;2023-06-22T07:49:14;100363.84;;;28.56;55.83
21863;BME280;11096;51.338;12.524;2023-06-22T07:51:39;100365.97;;;28.47;55.99
21863;BME280;11096;51.338;12.524;2023-06-22T07:54:05;100363.38;;;28.34;56.27
21863;BME280;11096;51.338;12.524;2023-06-22T07:56:30;100372.03;;;28.30;57.02
21863;BME280;11096;51.338;12.524;2023-06-22T07:58:56;100357.78;;;29.11;55.81
21863;BME280;11096;51.338;12.524;2023-06-22T08:01:23;100366.91;;;29.77;54.60
21863;BME280;11096;51.338;12.524;2023-06-22T08:03:49;100376.84;;;30.84;52.10
21863;BME280;11096;51.338;12.524;2023-06-22T08:06:15;100366.63;;;31.33;50.60
21863;BME280;11096;51.338;12.524;2023-06-22T08:08:41;100359.41;;;30.39;51.41
21863;BME280;11096;51.338;12.524;2023-06-22T08:11:08;100352.50;;;30.32;51.27
21863;BME280;11096;51.338;12.524;2023-06-22T08:13:34;100353.53;;;31.37;50.38
21863;BME280;11096;51.338;12.524;2023-06-22T08:15:59;100340.72;;;33.20;44.46
21863;BME280;11096;51.338;12.524;2023-06-22T08:18:25;100344.78;;;31.41;46.89
21863;BME280;11096;51.338;12.524;2023-06-22T08:20:50;100344.66;;;32.22;45.57
21863;BME280;11096;51.338;12.524;2023-06-22T08:23:15;100340.28;;;34.74;42.36
21863;BME280;11096;51.338;12.524;2023-06-22T08:25:41;100337.66;;;32.55;43.55
21863;BME280;11096;51.338;12.524;2023-06-22T08:28:06;100331.91;;;32.68;44.67
21863;BME280;11096;51.338;12.524;2023-06-22T08:30:32;100329.06;;;32.75;43.78
21863;BME280;11096;51.338;12.524;2023-06-22T08:32:57;100336.19;;;32.30;44.55
21863;BME280;11096;51.338;12.524;2023-06-22T08:35:23;100331.53;;;32.26;44.64
21863;BME280;11096;51.338;12.524;2023-06-22T08:37:48;100337.75;;;31.81;45.13
21863;BME280;11096;51.338;12.524;2023-06-22T08:40:20;100331.69;;;32.19;44.31
21863;BME280;11096;51.338;12.524;2023-06-22T08:42:46;100335.41;;;31.56;46.01
21863;BME280;11096;51.338;12.524;2023-06-22T08:45:12;100336.03;;;31.92;45.11
21863;BME280;11096;51.338;12.524;2023-06-22T08:47:39;100328.84;;;32.09;44.50
21863;BME280;11096;51.338;12.524;2023-06-22T08:50:07;100337.94;;;34.50;40.43
21863;BME280;11096;51.338;12.524;2023-06-22T08:52:34;100332.38;;;36.08;38.58
21863;BME280;11096;51.338;12.524;2023-06-22T08:54:59;100327.06;;;40.00;32.76
21863;BME280;11096;51.338;12.524;2023-06-22T08:57:25;100315.00;;;41.89;30.13
21863;BME280;11096;51.338;12.524;2023-06-22T08:59:50;100310.44;;;41.76;28.53
21863;BME280;11096;51.338;12.524;2023-06-22T09:02:17;100314.72;;;44.53;26.66
21863;BME280;11096;51.338;12.524;2023-06-22T09:04:43;100312.13;;;42.97;27.92
21863;BME280;11096;51.338;12.524;2023-06-22T09:07:08;100307.97;;;44.72;26.06
21863;BME280;11096;51.338;12.524;2023-06-22T09:09:34;100301.31;;;45.32;24.70
21863;BME280;11096;51.338;12.524;2023-06-22T09:11:59;100304.91;;;45.03;25.00
21863;BME280;11096;51.338;12.524;2023-06-22T09:14:24;100304.47;;;43.34;26.12
21863;BME280;11096;51.338;12.524;2023-06-22T09:16:50;100300.97;;;45.13;24.37
21863;BME280;11096;51.338;12.524;2023-06-22T09:19:15;100300.06;;;45.63;24.15
21863;BME280;11096;51.338;12.524;2023-06-22T09:21:41;100292.50;;;45.60;24.53
21863;BME280;11096;51.338;12.524;2023-06-22T09:24:07;100292.44;;;44.85;24.27
21863;BME280;11096;51.338;12.524;2023-06-22T09:26:33;100286.69;;;44.77;25.07
21863;BME280;11096;51.338;12.524;2023-06-22T09:28:58;100286.28;;;45.51;23.59
21863;BME280;11096;51.338;12.524;2023-06-22T09:31:24;100271.16;;;46.36;22.55
21863;BME280;11096;51.338;12.524;2023-06-22T09:33:53;100274.84;;;43.79;25.29
21863;BME280;11096;51.338;12.524;2023-06-22T09:36:20;100269.69;;;45.47;24.50
21863;BME280;11096;51.338;12.524;2023-06-22T09:38:45;100267.78;;;42.42;25.87
21863;BME280;11096;51.338;12.524;2023-06-22T09:41:11;100269.84;;;43.72;25.50
21863;BME280;11096;51.338;12.524;2023-06-22T09:43:36;100269.13;;;42.62;25.90
21863;BME280;11096;51.338;12.524;2023-06-22T09:46:02;100263.31;;;44.03;25.75
21863;BME280;11096;51.338;12.524;2023-06-22T09:48:28;100249.69;;;45.47;23.59
21863;BME280;11096;51.338;12.524;2023-06-22T09:50:55;100247.22;;;43.93;24.94
21863;BME280;11096;51.338;12.524;2023-06-22T09:53:20;100247.31;;;44.52;24.30
21863;BME280;11096;51.338;12.524;2023-06-22T09:55:46;100249.44;;;44.08;23.96
21863;BME280;11096;51.338;12.524;2023-06-22T09:58:11;100246.31;;;44.27;24.30
21863;BME280;11096;51.338;12.524;2023-06-22T10:00:37;100245.25;;;41.52;26.11
21863;BME280;11096;51.338;12.524;2023-06-22T10:03:02;100245.00;;;41.03;27.17
21863;BME280;11096;51.338;12.524;2023-06-22T10:05:28;100240.41;;;40.90;27.27
21863;BME280;11096;51.338;12.524;2023-06-22T10:07:53;100242.22;;;42.38;27.33
21863;BME280;11096;51.338;12.524;2023-06-22T10:10:18;100230.88;;;45.36;24.25
21863;BME280;11096;51.338;12.524;2023-06-22T10:12:54;100230.13;;;44.94;23.54
21863;BME280;11096;51.338;12.524;2023-06-22T10:15:19;100224.00;;;44.46;24.23
21863;BME280;11096;51.338;12.524;2023-06-22T10:17:46;100228.81;;;43.55;25.48
21863;BME280;11096;51.338;12.524;2023-06-22T10:20:12;100232.16;;;46.71;22.76
21863;BME280;11096;51.338;12.524;2023-06-22T10:22:42;100217.41;;;44.89;24.15
21863;BME280;11096;51.338;12.524;2023-06-22T10:25:09;100214.78;;;45.14;24.04
21863;BME280;11096;51.338;12.524;2023-06-22T10:27:35;100215.19;;;47.21;21.68
21863;BME280;11096;51.338;12.524;2023-06-22T10:30:01;100205.59;;;44.97;23.71
21863;BME280;11096;51.338;12.524;2023-06-22T10:32:26;100210.63;;;45.29;23.26
21863;BME280;11096;51.338;12.524;2023-06-22T10:34:54;100210.66;;;46.60;21.63
21863;BME280;11096;51.338;12.524;2023-06-22T10:37:19;100207.44;;;45.72;22.06
21863;BME280;11096;51.338;12.524;2023-06-22T10:39:45;100197.91;;;44.10;23.46
21863;BME280;11096;51.338;12.524;2023-06-22T10:42:11;100188.44;;;44.58;23.04
21863;BME280;11096;51.338;12.524;2023-06-22T10:44:37;100192.66;;;44.77;22.74
21863;BME280;11096;51.338;12.524;2023-06-22T10:47:04;100188.09;;;44.09;22.55
21863;BME280;11096;51.338;12.524;2023-06-22T10:49:29;100187.78;;;44.62;22.57
21863;BME280;11096;51.338;12.524;2023-06-22T10:51:55;100187.59;;;44.46;22.81
21863;BME280;11096;51.338;12.524;2023-06-22T10:54:20;100189.41;;;43.47;23.60
21863;BME280;11096;51.338;12.524;2023-06-22T10:56:46;100186.44;;;41.37;26.11
21863;BME280;11096;51.338;12.524;2023-06-22T10:59:11;100185.56;;;41.73;26.20
21863;BME280;11096;51.338;12.524;2023-06-22T11:01:37;100180.47;;;41.80;25.68
21863;BME280;11096;51.338;12.524;2023-06-22T11:04:03;100180.41;;;41.04;26.10
21863;BME280;11096;51.338;12.524;2023-06-22T11:06:28;100170.09;;;41.14;26.94
21863;BME280;11096;51.338;12.524;2023-06-22T11:08:54;100167.31;;;42.22;25.15
21863;BME280;11096;51.338;12.524;2023-06-22T11:11:19;100171.84;;;41.64;26.26
21863;BME280;11096;51.338;12.524;2023-06-22T11:13:45;100174.84;;;40.72;27.25
21863;BME280;11096;51.338;12.524;2023-06-22T11:16:10;100163.81;;;42.47;25.48
21863;BME280;11096;51.338;12.524;2023-06-22T11:18:36;100159.66;;;42.67;25.41
21863;BME280;11096;51.338;12.524;2023-06-22T11:21:01;100153.81;;;42.25;25.41
21863;BME280;11096;51.338;12.524;2023-06-22T11:23:27;100152.22;;;42.24;25.97
21863;BME280;11096;51.338;12.524;2023-06-22T11:25:54;100155.16;;;41.12;27.21
21863;BME280;11096;51.338;12.524;2023-06-22T11:28:19;100158.25;;;42.79;25.38
21863;BME280;11096;51.338;12.524;2023-06-22T11:30:45;100154.97;;;41.53;26.50
21863;BME280;11096;51.338;12.524;2023-06-22T11:33:10;100145.00;;;40.67;27.21
21863;BME280;11096;51.338;12.524;2023-06-22T11:35:36;100146.06;;;42.10;26.18
21863;BME280;11096;51.338;12.524;2023-06-22T11:38:01;100141.03;;;43.13;25.08
21863;BME280;11096;51.338;12.524;2023-06-22T11:40:28;100133.41;;;43.92;24.05
21863;BME280;11096;51.338;12.524;2023-06-22T11:42:54;100143.06;;;43.89;23.90
21863;BME280;11096;51.338;12.524;2023-06-22T11:45:19;100134.78;;;43.98;24.41
21863;BME280;11096;51.338;12.524;2023-06-22T11:47:45;100137.06;;;44.05;23.94
21863;BME280;11096;51.338;12.524;2023-06-22T11:50:11;100133.16;;;43.03;25.53
21863;BME280;11096;51.338;12.524;2023-06-22T11:52:36;100129.34;;;43.51;24.41
21863;BME280;11096;51.338;12.524;2023-06-22T11:55:02;100129.44;;;42.55;26.00
21863;BME280;11096;51.338;12.524;2023-06-22T11:57:32;100130.66;;;41.43;26.39
21863;BME280;11096;51.338;12.524;2023-06-22T11:59:58;100126.63;;;41.72;26.44
21863;BME280;11096;51.338;12.524;2023-06-22T12:02:23;100122.59;;;41.60;26.41
21863;BME280;11096;51.338;12.524;2023-06-22T12:04:48;100118.38;;;42.52;25.09
21863;BME280;11096;51.338;12.524;2023-06-22T12:07:17;100110.88;;;43.86;24.29
21863;BME280;11096;51.338;12.524;2023-06-22T12:09:43;100103.13;;;43.50;24.64
21863;BME280;11096;51.338;12.524;2023-06-22T12:12:09;100103.50;;;43.40;25.03
21863;BME280;11096;51.338;12.524;2023-06-22T12:14:34;100095.91;;;43.84;24.25
21863;BME280;11096;51.338;12.524;2023-06-22T12:17:00;100093.28;;;43.58;24.34
21863;BME280;11096;51.338;12.524;2023-06-22T12:19:25;100084.56;;;43.26;25.16
21863;BME280;11096;51.338;12.524;2023-06-22T12:21:51;100082.91;;;43.34;25.24
21863;BME280;11096;51.338;12.524;2023-06-22T12:24:16;100077.00;;;42.18;26.10
21863;BME280;11096;51.338;12.524;2023-06-22T12:26:42;100068.09;;;43.35;24.98
21863;BME280;11096;51.338;12.524;2023-06-22T12:29:08;100072.03;;;43.93;24.40
21863;BME280;11096;51.338;12.524;2023-06-22T12:31:33;100067.47;;;43.38;25.50
21863;BME280;11096;51.338;12.524;2023-06-22T12:33:58;100060.03;;;42.56;26.05
21863;BME280;11096;51.338;12.524;2023-06-22T12:36:24;100059.31;;;43.20;25.04
21863;BME280;11096;51.338;12.524;2023-06-22T12:38:49;100062.13;;;44.51;23.60